sensor_id;sensor_type;location;lat;lon;timestamp;P1;durP1;ratioP1;P2;durP2;ratioP2
31694;SDS011;18289;51.330;4.946;2024-03-22T00:01:52;49.25;;;29.15;;
31694;SDS011;18289;51.330;4.946;2024-03-22T00:04:18;47.90;;;29.23;;
31694;SDS011;18289;51.330;4.946;2024-03-22T00:06:45;43.72;;;28.40;;
31694;SDS011;18289;51.330;4.946;2024-03-22T00:09:12;46.00;;;28.48;;
31694;SDS011;18289;51.330;4.946;2024-03-22T00:11:39;47.42;;;29.35;;
31694;SDS011;18289;51.330;4.946;2024-03-22T00:14:05;46.45;;;28.83;;
31694;SDS011;18289;51.330;4.946;2024-03-22T00:16:32;46.70;;;28.23;;
31694;SDS011;18289;51.330;4.946;2024-03-22T00:18:57;47.50;;;28.48;;
31694;SDS011;18289;51.330;4.946;2024-03-22T00:21:23;45.65;;;28.10;;
31694;SDS011;18289;51.330;4.946;2024-03-22T00:23:49;46.30;;;29.15;;
31694;SDS011;18289;51.330;4.946;2024-03-22T00:26:15;45.97;;;30.13;;
31694;SDS011;18289;51.330;4.946;2024-03-22T00:28:41;48.28;;;29.08;;
31694;SDS011;18289;51.330;4.946;2024-03-22T00:31:07;48.28;;;29.85;;
31694;SDS011;18289;51.330;4.946;2024-03-22T00:33:33;45.28;;;27.75;;
31694;SDS011;18289;51.330;4.946;2024-03-22T00:35:59;43.35;;;28.27;;
31694;SDS011;18289;51.330;4.946;2024-03-22T00:38:24;50.38;;;30.02;;
31694;SDS011;18289;51.330;4.946;2024-03-22T00:40:50;45.03;;;27.90;;
31694;SDS011;18289;51.330;4.946;2024-03-22T00:43:16;44.28;;;29.92;;
31694;SDS011;18289;51.330;4.946;2024-03-22T00:45:42;41.75;;;26.48;;
31694;SDS011;18289;51.330;4.946;2024-03-22T00:48:07;44.25;;;27.73;;
31694;SDS011;18289;51.330;4.946;2024-03-22T00:50:34;44.05;;;28.45;;
31694;SDS011;18289;51.330;4.946;2024-03-22T00:52:59;45.63;;;27.45;;
31694;SDS011;18289;51.330;4.946;2024-03-22T00:55:28;44.80;;;28.27;;
31694;SDS011;18289;51.330;4.946;2024-03-22T00:57:54;43.08;;;28.83;;
31694;SDS011;18289;51.330;4.946;2024-03-22T01:00:19;41.55;;;27.42;;
31694;SDS011;18289;51.330;4.946;2024-03-22T01:02:45;45.70;;;28.33;;
31694;SDS011;18289;51.330;4.946;2024-03-22T01:05:11;41.60;;;26.92;;
31694;SDS011;18289;51.330;4.946;2024-03-22T01:07:37;46.67;;;27.83;;
31694;SDS011;18289;51.330;4.946;2024-03-22T01:10:03;38.90;;;25.92;;
31694;SDS011;18289;51.330;4.946;2024-03-22T01:12:29;42.95;;;27.67;;
31694;SDS011;18289;51.330;4.946;2024-03-22T01:14:56;44.05;;;26.75;;
31694;SDS011;18289;51.330;4.946;2024-03-22T01:19:52;41.00;;;27.30;;
31694;SDS011;18289;51.330;4.946;2024-03-22T01:22:18;42.28;;;27.73;;
31694;SDS011;18289;51.330;4.946;2024-03-22T01:24:44;44.40;;;28.10;;
31694;SDS011;18289;51.330;4.946;2024-03-22T01:27:10;43.30;;;26.92;;
31694;SDS011;18289;51.330;4.946;2024-03-22T01:29:36;43.00;;;26.55;;
31694;SDS011;18289;51.330;4.946;2024-03-22T01:32:02;40.05;;;26.73;;
31694;SDS011;18289;51.330;4.946;2024-03-22T01:34:28;43.25;;;27.30;;
31694;SDS011;18289;51.330;4.946;2024-03-22T01:36:54;41.47;;;26.30;;
31694;SDS011;18289;51.330;4.946;2024-03-22T01:39:20;40.85;;;26.27;;
31694;SDS011;18289;51.330;4.946;2024-03-22T01:41:49;41.47;;;26.85;;
31694;SDS011;18289;51.330;4.946;2024-03-22T01:46:42;36.42;;;24.55;;
31694;SDS011;18289;51.330;4.946;2024-03-22T01:49:09;41.30;;;25.50;;
31694;SDS011;18289;51.330;4.946;2024-03-22T01:51:38;39.78;;;26.15;;
31694;SDS011;18289;51.330;4.946;2024-03-22T01:54:10;39.80;;;25.73;;
31694;SDS011;18289;51.330;4.946;2024-03-22T01:56:36;38.25;;;26.63;;
31694;SDS011;18289;51.330;4.946;2024-03-22T01:59:04;36.15;;;25.75;;
31694;SDS011;18289;51.330;4.946;2024-03-22T02:01:30;42.47;;;27.20;;
31694;SDS011;18289;51.330;4.946;2024-03-22T02:06:25;43.30;;;26.70;;
31694;SDS011;18289;51.330;4.946;2024-03-22T02:08:51;39.20;;;25.95;;
31694;SDS011;18289;51.330;4.946;2024-03-22T02:11:16;38.25;;;25.95;;
31694;SDS011;18289;51.330;4.946;2024-03-22T02:13:42;43.65;;;25.73;;
31694;SDS011;18289;51.330;4.946;2024-03-22T02:16:08;40.65;;;25.88;;
31694;SDS011;18289;51.330;4.946;2024-03-22T02:18:34;39.70;;;25.77;;
31694;SDS011;18289;51.330;4.946;2024-03-22T02:21:00;38.80;;;25.13;;
31694;SDS011;18289;51.330;4.946;2024-03-22T02:23:43;38.75;;;25.60;;
31694;SDS011;18289;51.330;4.946;2024-03-22T02:26:09;42.65;;;24.25;;
31694;SDS011;18289;51.330;4.946;2024-03-22T02:28:35;38.97;;;25.90;;
31694;SDS011;18289;51.330;4.946;2024-03-22T02:33:29;39.35;;;24.65;;
31694;SDS011;18289;51.330;4.946;2024-03-22T02:35:55;36.80;;;24.23;;
31694;SDS011;18289;51.330;4.946;2024-03-22T02:38:21;38.60;;;25.02;;
31694;SDS011;18289;51.330;4.946;2024-03-22T02:40:48;37.20;;;24.38;;
31694;SDS011;18289;51.330;4.946;2024-03-22T02:43:16;37.50;;;24.27;;
31694;SDS011;18289;51.330;4.946;2024-03-22T02:45:46;34.92;;;23.92;;
31694;SDS011;18289;51.330;4.946;2024-03-22T02:48:13;36.78;;;25.10;;
31694;SDS011;18289;51.330;4.946;2024-03-22T02:50:39;34.97;;;24.05;;
31694;SDS011;18289;51.330;4.946;2024-03-22T02:53:04;33.65;;;23.60;;
31694;SDS011;18289;51.330;4.946;2024-03-22T02:55:36;34.38;;;22.98;;
31694;SDS011;18289;51.330;4.946;2024-03-22T02:58:02;34.67;;;23.00;;
31694;SDS011;18289;51.330;4.946;2024-03-22T03:00:28;36.03;;;22.70;;
31694;SDS011;18289;51.330;4.946;2024-03-22T03:02:54;36.75;;;24.25;;
31694;SDS011;18289;51.330;4.946;2024-03-22T03:05:20;34.17;;;22.80;;
31694;SDS011;18289;51.330;4.946;2024-03-22T03:07:47;33.25;;;22.90;;
31694;SDS011;18289;51.330;4.946;2024-03-22T03:10:13;31.88;;;22.73;;
31694;SDS011;18289;51.330;4.946;2024-03-22T03:12:39;34.13;;;21.90;;
31694;SDS011;18289;51.330;4.946;2024-03-22T03:15:04;33.33;;;22.77;;
31694;SDS011;18289;51.330;4.946;2024-03-22T03:17:30;34.65;;;21.63;;
31694;SDS011;18289;51.330;4.946;2024-03-22T03:19:56;30.85;;;22.20;;
31694;SDS011;18289;51.330;4.946;2024-03-22T03:22:22;35.58;;;23.30;;
31694;SDS011;18289;51.330;4.946;2024-03-22T03:24:48;36.22;;;23.20;;
31694;SDS011;18289;51.330;4.946;2024-03-22T03:27:13;36.42;;;23.27;;
31694;SDS011;18289;51.330;4.946;2024-03-22T03:29:39;37.35;;;23.60;;
31694;SDS011;18289;51.330;4.946;2024-03-22T03:32:05;35.58;;;22.98;;
31694;SDS011;18289;51.330;4.946;2024-03-22T03:34:30;31.90;;;22.45;;
31694;SDS011;18289;51.330;4.946;2024-03-22T03:36:56;35.20;;;21.60;;
31694;SDS011;18289;51.330;4.946;2024-03-22T03:39:25;33.47;;;23.80;;
31694;SDS011;18289;51.330;4.946;2024-03-22T03:41:52;29.58;;;21.42;;
31694;SDS011;18289;51.330;4.946;2024-03-22T03:44:18;33.72;;;22.30;;
31694;SDS011;18289;51.330;4.946;2024-03-22T03:46:43;33.33;;;21.92;;
31694;SDS011;18289;51.330;4.946;2024-03-22T03:49:09;30.60;;;22.00;;
31694;SDS011;18289;51.330;4.946;2024-03-22T03:51:35;31.02;;;21.55;;
31694;SDS011;18289;51.330;4.946;2024-03-22T03:54:01;31.92;;;21.35;;
31694;SDS011;18289;51.330;4.946;2024-03-22T03:56:26;32.03;;;20.65;;
31694;SDS011;18289;51.330;4.946;2024-03-22T03:58:52;31.67;;;20.70;;
31694;SDS011;18289;51.330;4.946;2024-03-22T04:01:19;34.72;;;20.73;;
31694;SDS011;18289;51.330;4.946;2024-03-22T04:03:45;29.92;;;20.92;;
31694;SDS011;18289;51.330;4.946;2024-03-22T04:06:14;33.17;;;21.98;;
31694;SDS011;18289;51.330;4.946;2024-03-22T04:08:39;28.83;;;20.27;;
31694;SDS011;18289;51.330;4.946;2024-03-22T04:11:05;28.77;;;20.65;;
31694;SDS011;18289;51.330;4.946;2024-03-22T04:13:31;28.83;;;19.88;;
31694;SDS011;18289;51.330;4.946;2024-03-22T04:15:58;31.92;;;20.27;;
31694;SDS011;18289;51.330;4.946;2024-03-22T04:18:24;29.10;;;19.30;;
31694;SDS011;18289;51.330;4.946;2024-03-22T04:23:33;29.17;;;18.17;;
31694;SDS011;18289;51.330;4.946;2024-03-22T04:25:59;26.05;;;18.23;;
31694;SDS011;18289;51.330;4.946;2024-03-22T04:28:26;29.35;;;19.48;;
31694;SDS011;18289;51.330;4.946;2024-03-22T04:33:20;29.85;;;18.58;;
31694;SDS011;18289;51.330;4.946;2024-03-22T04:35:46;26.60;;;19.05;;
31694;SDS011;18289;51.330;4.946;2024-03-22T04:38:11;32.55;;;19.00;;
31694;SDS011;18289;51.330;4.946;2024-03-22T04:40:37;31.40;;;18.55;;
31694;SDS011;18289;51.330;4.946;2024-03-22T04:43:03;26.23;;;17.23;;
31694;SDS011;18289;51.330;4.946;2024-03-22T04:45:28;25.45;;;17.48;;
31694;SDS011;18289;51.330;4.946;2024-03-22T04:47:54;25.38;;;17.45;;
31694;SDS011;18289;51.330;4.946;2024-03-22T04:50:20;27.17;;;18.75;;
31694;SDS011;18289;51.330;4.946;2024-03-22T04:52:45;23.98;;;17.17;;
31694;SDS011;18289;51.330;4.946;2024-03-22T04:55:14;26.98;;;17.58;;
31694;SDS011;18289;51.330;4.946;2024-03-22T04:57:40;26.60;;;17.50;;
31694;SDS011;18289;51.330;4.946;2024-03-22T05:00:06;25.77;;;16.05;;
31694;SDS011;18289;51.330;4.946;2024-03-22T05:02:33;23.40;;;15.63;;
31694;SDS011;18289;51.330;4.946;2024-03-22T05:04:59;27.67;;;16.02;;
31694;SDS011;18289;51.330;4.946;2024-03-22T05:07:25;25.38;;;15.65;;
31694;SDS011;18289;51.330;4.946;2024-03-22T05:09:51;22.23;;;15.77;;
31694;SDS011;18289;51.330;4.946;2024-03-22T05:12:16;22.42;;;14.32;;
31694;SDS011;18289;51.330;4.946;2024-03-22T05:14:43;20.90;;;13.93;;
31694;SDS011;18289;51.330;4.946;2024-03-22T05:17:09;22.80;;;14.18;;
31694;SDS011;18289;51.330;4.946;2024-03-22T05:19:34;21.35;;;14.18;;
31694;SDS011;18289;51.330;4.946;2024-03-22T05:22:00;21.92;;;14.10;;
31694;SDS011;18289;51.330;4.946;2024-03-22T05:24:26;22.52;;;13.60;;
31694;SDS011;18289;51.330;4.946;2024-03-22T05:26:52;22.40;;;14.93;;
31694;SDS011;18289;51.330;4.946;2024-03-22T05:29:18;25.40;;;14.88;;
31694;SDS011;18289;51.330;4.946;2024-03-22T05:31:47;24.60;;;15.60;;
31694;SDS011;18289;51.330;4.946;2024-03-22T05:34:14;22.33;;;14.50;;
31694;SDS011;18289;51.330;4.946;2024-03-22T05:36:40;21.65;;;14.25;;
31694;SDS011;18289;51.330;4.946;2024-03-22T05:39:06;21.48;;;14.52;;
31694;SDS011;18289;51.330;4.946;2024-03-22T05:41:32;20.15;;;13.90;;
31694;SDS011;18289;51.330;4.946;2024-03-22T05:43:58;20.15;;;13.57;;
31694;SDS011;18289;51.330;4.946;2024-03-22T05:46:23;20.75;;;14.85;;
31694;SDS011;18289;51.330;4.946;2024-03-22T05:48:49;21.08;;;13.65;;
31694;SDS011;18289;51.330;4.946;2024-03-22T05:51:17;23.05;;;14.82;;
31694;SDS011;18289;51.330;4.946;2024-03-22T05:53:42;22.60;;;14.07;;
31694;SDS011;18289;51.330;4.946;2024-03-22T05:56:09;22.67;;;14.15;;
31694;SDS011;18289;51.330;4.946;2024-03-22T05:58:34;22.40;;;14.40;;
31694;SDS011;18289;51.330;4.946;2024-03-22T06:01:03;25.77;;;15.75;;
31694;SDS011;18289;51.330;4.946;2024-03-22T06:03:29;23.05;;;15.05;;
31694;SDS011;18289;51.330;4.946;2024-03-22T06:05:55;21.27;;;14.07;;
31694;SDS011;18289;51.330;4.946;2024-03-22T06:08:24;21.27;;;13.90;;
31694;SDS011;18289;51.330;4.946;2024-03-22T06:10:52;22.75;;;13.20;;
31694;SDS011;18289;51.330;4.946;2024-03-22T06:13:18;17.98;;;13.65;;
31694;SDS011;18289;51.330;4.946;2024-03-22T06:15:44;20.42;;;13.90;;
31694;SDS011;18289;51.330;4.946;2024-03-22T06:18:13;18.05;;;12.77;;
31694;SDS011;18289;51.330;4.946;2024-03-22T06:20:39;18.08;;;12.52;;
31694;SDS011;18289;51.330;4.946;2024-03-22T06:23:05;20.38;;;13.30;;
31694;SDS011;18289;51.330;4.946;2024-03-22T06:25:30;18.00;;;12.82;;
31694;SDS011;18289;51.330;4.946;2024-03-22T06:27:56;16.23;;;12.15;;
31694;SDS011;18289;51.330;4.946;2024-03-22T06:30:22;20.88;;;13.40;;
31694;SDS011;18289;51.330;4.946;2024-03-22T06:32:48;18.33;;;12.55;;
31694;SDS011;18289;51.330;4.946;2024-03-22T06:35:14;17.48;;;12.23;;
31694;SDS011;18289;51.330;4.946;2024-03-22T06:37:39;16.90;;;13.38;;
31694;SDS011;18289;51.330;4.946;2024-03-22T06:40:06;17.95;;;12.88;;
31694;SDS011;18289;51.330;4.946;2024-03-22T06:42:32;18.23;;;13.18;;
31694;SDS011;18289;51.330;4.946;2024-03-22T06:45:01;19.67;;;13.38;;
31694;SDS011;18289;51.330;4.946;2024-03-22T06:49:53;16.92;;;12.55;;
31694;SDS011;18289;51.330;4.946;2024-03-22T06:52:19;17.13;;;12.13;;
31694;SDS011;18289;51.330;4.946;2024-03-22T06:57:13;15.55;;;12.20;;
31694;SDS011;18289;51.330;4.946;2024-03-22T06:59:38;16.40;;;12.15;;
31694;SDS011;18289;51.330;4.946;2024-03-22T07:02:04;16.88;;;12.60;;
31694;SDS011;18289;51.330;4.946;2024-03-22T07:04:30;15.48;;;11.75;;
31694;SDS011;18289;51.330;4.946;2024-03-22T07:06:56;18.52;;;11.80;;
31694;SDS011;18289;51.330;4.946;2024-03-22T07:09:22;14.88;;;10.75;;
31694;SDS011;18289;51.330;4.946;2024-03-22T07:11:48;14.88;;;11.48;;
31694;SDS011;18289;51.330;4.946;2024-03-22T07:14:13;13.50;;;9.98;;
31694;SDS011;18289;51.330;4.946;2024-03-22T07:16:39;14.65;;;10.85;;
31694;SDS011;18289;51.330;4.946;2024-03-22T07:19:05;16.23;;;10.73;;
31694;SDS011;18289;51.330;4.946;2024-03-22T07:21:31;13.43;;;10.45;;
31694;SDS011;18289;51.330;4.946;2024-03-22T07:23:56;14.60;;;10.40;;
31694;SDS011;18289;51.330;4.946;2024-03-22T07:26:22;16.13;;;10.82;;
31694;SDS011;18289;51.330;4.946;2024-03-22T07:28:48;13.65;;;9.95;;
31694;SDS011;18289;51.330;4.946;2024-03-22T07:31:13;14.10;;;10.65;;
31694;SDS011;18289;51.330;4.946;2024-03-22T07:33:39;13.13;;;10.02;;
31694;SDS011;18289;51.330;4.946;2024-03-22T07:36:05;12.48;;;9.75;;
31694;SDS011;18289;51.330;4.946;2024-03-22T07:38:31;11.88;;;10.35;;
31694;SDS011;18289;51.330;4.946;2024-03-22T07:40:57;13.07;;;9.80;;
31694;SDS011;18289;51.330;4.946;2024-03-22T07:43:23;12.63;;;9.40;;
31694;SDS011;18289;51.330;4.946;2024-03-22T07:45:48;12.20;;;9.75;;
31694;SDS011;18289;51.330;4.946;2024-03-22T07:48:14;12.93;;;10.13;;
31694;SDS011;18289;51.330;4.946;2024-03-22T07:50:40;11.40;;;9.32;;
31694;SDS011;18289;51.330;4.946;2024-03-22T07:53:06;11.88;;;8.80;;
31694;SDS011;18289;51.330;4.946;2024-03-22T07:55:33;9.95;;;8.55;;
31694;SDS011;18289;51.330;4.946;2024-03-22T07:57:59;10.25;;;8.75;;
31694;SDS011;18289;51.330;4.946;2024-03-22T08:00:30;11.18;;;9.20;;
31694;SDS011;18289;51.330;4.946;2024-03-22T08:02:56;11.02;;;8.88;;
31694;SDS011;18289;51.330;4.946;2024-03-22T08:05:24;15.35;;;10.18;;
31694;SDS011;18289;51.330;4.946;2024-03-22T08:07:49;9.82;;;8.15;;
31694;SDS011;18289;51.330;4.946;2024-03-22T08:10:15;12.60;;;8.60;;
31694;SDS011;18289;51.330;4.946;2024-03-22T08:12:41;10.02;;;8.05;;
31694;SDS011;18289;51.330;4.946;2024-03-22T08:15:09;11.00;;;7.70;;
31694;SDS011;18289;51.330;4.946;2024-03-22T08:17:35;8.63;;;7.63;;
31694;SDS011;18289;51.330;4.946;2024-03-22T08:20:01;10.15;;;8.07;;
31694;SDS011;18289;51.330;4.946;2024-03-22T08:22:26;8.02;;;7.22;;
31694;SDS011;18289;51.330;4.946;2024-03-22T08:24:52;9.40;;;7.25;;
31694;SDS011;18289;51.330;4.946;2024-03-22T08:27:20;8.68;;;7.25;;
31694;SDS011;18289;51.330;4.946;2024-03-22T08:29:46;8.38;;;6.85;;
31694;SDS011;18289;51.330;4.946;2024-03-22T08:32:12;8.00;;;7.20;;
31694;SDS011;18289;51.330;4.946;2024-03-22T08:34:38;8.63;;;6.88;;
31694;SDS011;18289;51.330;4.946;2024-03-22T08:37:04;8.38;;;6.57;;
31694;SDS011;18289;51.330;4.946;2024-03-22T08:39:30;7.10;;;6.35;;
31694;SDS011;18289;51.330;4.946;2024-03-22T08:41:55;6.93;;;5.93;;
31694;SDS011;18289;51.330;4.946;2024-03-22T08:44:21;7.65;;;6.05;;
31694;SDS011;18289;51.330;4.946;2024-03-22T08:46:47;7.47;;;6.75;;
31694;SDS011;18289;51.330;4.946;2024-03-22T08:49:14;6.47;;;5.88;;
31694;SDS011;18289;51.330;4.946;2024-03-22T08:51:40;6.97;;;6.10;;
31694;SDS011;18289;51.330;4.946;2024-03-22T08:54:06;6.68;;;5.97;;
31694;SDS011;18289;51.330;4.946;2024-03-22T08:56:32;7.85;;;6.13;;
31694;SDS011;18289;51.330;4.946;2024-03-22T08:58:58;8.82;;;6.55;;
31694;SDS011;18289;51.330;4.946;2024-03-22T09:01:24;9.48;;;6.28;;
31694;SDS011;18289;51.330;4.946;2024-03-22T09:03:50;6.88;;;6.05;;
31694;SDS011;18289;51.330;4.946;2024-03-22T09:06:16;6.28;;;5.68;;
31694;SDS011;18289;51.330;4.946;2024-03-22T09:08:42;6.18;;;5.57;;
31694;SDS011;18289;51.330;4.946;2024-03-22T09:11:08;8.45;;;6.25;;
31694;SDS011;18289;51.330;4.946;2024-03-22T09:13:36;6.78;;;5.93;;
31694;SDS011;18289;51.330;4.946;2024-03-22T09:16:02;7.35;;;6.32;;
31694;SDS011;18289;51.330;4.946;2024-03-22T09:18:28;9.00;;;5.82;;
31694;SDS011;18289;51.330;4.946;2024-03-22T09:20:54;7.70;;;6.20;;
31694;SDS011;18289;51.330;4.946;2024-03-22T09:23:19;7.85;;;5.97;;
31694;SDS011;18289;51.330;4.946;2024-03-22T09:25:46;8.27;;;6.45;;
31694;SDS011;18289;51.330;4.946;2024-03-22T09:28:12;8.52;;;6.30;;
31694;SDS011;18289;51.330;4.946;2024-03-22T09:30:41;8.13;;;6.25;;
31694;SDS011;18289;51.330;4.946;2024-03-22T09:33:08;6.57;;;5.63;;
31694;SDS011;18289;51.330;4.946;2024-03-22T09:35:34;7.88;;;6.32;;
31694;SDS011;18289;51.330;4.946;2024-03-22T09:38:00;7.95;;;5.95;;
31694;SDS011;18289;51.330;4.946;2024-03-22T09:40:26;10.40;;;6.07;;
31694;SDS011;18289;51.330;4.946;2024-03-22T09:42:52;7.30;;;6.07;;
31694;SDS011;18289;51.330;4.946;2024-03-22T09:45:19;8.75;;;6.35;;
31694;SDS011;18289;51.330;4.946;2024-03-22T09:47:45;7.03;;;6.22;;
31694;SDS011;18289;51.330;4.946;2024-03-22T09:50:13;6.78;;;6.07;;
31694;SDS011;18289;51.330;4.946;2024-03-22T09:52:40;8.30;;;6.40;;
31694;SDS011;18289;51.330;4.946;2024-03-22T09:55:07;9.30;;;7.03;;
31694;SDS011;18289;51.330;4.946;2024-03-22T09:57:37;7.57;;;6.40;;
31694;SDS011;18289;51.330;4.946;2024-03-22T10:00:05;8.43;;;6.32;;
31694;SDS011;18289;51.330;4.946;2024-03-22T10:02:32;13.65;;;7.50;;
31694;SDS011;18289;51.330;4.946;2024-03-22T10:04:59;8.02;;;6.28;;
31694;SDS011;18289;51.330;4.946;2024-03-22T10:07:25;7.80;;;6.70;;
31694;SDS011;18289;51.330;4.946;2024-03-22T10:09:57;8.63;;;6.90;;
31694;SDS011;18289;51.330;4.946;2024-03-22T10:12:23;14.57;;;10.45;;
31694;SDS011;18289;51.330;4.946;2024-03-22T10:14:52;11.65;;;7.93;;
31694;SDS011;18289;51.330;4.946;2024-03-22T10:17:18;11.82;;;7.68;;
31694;SDS011;18289;51.330;4.946;2024-03-22T10:19:44;10.70;;;7.63;;
31694;SDS011;18289;51.330;4.946;2024-03-22T10:22:10;9.98;;;8.07;;
31694;SDS011;18289;51.330;4.946;2024-03-22T10:24:35;9.40;;;7.53;;
31694;SDS011;18289;51.330;4.946;2024-03-22T10:27:01;11.68;;;8.13;;
31694;SDS011;18289;51.330;4.946;2024-03-22T10:29:27;10.40;;;8.63;;
31694;SDS011;18289;51.330;4.946;2024-03-22T10:31:53;12.35;;;8.50;;
31694;SDS011;18289;51.330;4.946;2024-03-22T10:34:20;13.70;;;8.82;;
31694;SDS011;18289;51.330;4.946;2024-03-22T10:36:47;10.73;;;8.80;;
31694;SDS011;18289;51.330;4.946;2024-03-22T10:39:16;13.10;;;8.77;;
31694;SDS011;18289;51.330;4.946;2024-03-22T10:41:43;11.43;;;8.30;;
31694;SDS011;18289;51.330;4.946;2024-03-22T10:44:13;10.57;;;7.93;;
31694;SDS011;18289;51.330;4.946;2024-03-22T10:46:42;10.75;;;8.52;;
31694;SDS011;18289;51.330;4.946;2024-03-22T10:49:10;19.08;;;12.65;;
31694;SDS011;18289;51.330;4.946;2024-03-22T10:51:46;13.10;;;9.75;;
31694;SDS011;18289;51.330;4.946;2024-03-22T10:54:19;16.52;;;10.95;;
31694;SDS011;18289;51.330;4.946;2024-03-22T10:56:47;12.88;;;10.80;;
31694;SDS011;18289;51.330;4.946;2024-03-22T10:59:20;15.30;;;13.25;;
31694;SDS011;18289;51.330;4.946;2024-03-22T11:01:49;17.52;;;12.88;;
31694;SDS011;18289;51.330;4.946;2024-03-22T11:04:17;17.73;;;11.75;;
31694;SDS011;18289;51.330;4.946;2024-03-22T11:06:48;15.35;;;12.43;;
31694;SDS011;18289;51.330;4.946;2024-03-22T11:09:21;22.50;;;14.63;;
31694;SDS011;18289;51.330;4.946;2024-03-22T11:11:46;18.75;;;14.80;;
31694;SDS011;18289;51.330;4.946;2024-03-22T11:14:12;19.05;;;15.10;;
31694;SDS011;18289;51.330;4.946;2024-03-22T11:16:38;21.27;;;13.13;;
31694;SDS011;18289;51.330;4.946;2024-03-22T11:19:07;17.13;;;13.98;;
31694;SDS011;18289;51.330;4.946;2024-03-22T11:21:33;20.10;;;12.90;;
31694;SDS011;18289;51.330;4.946;2024-03-22T11:24:02;16.88;;;13.23;;
31694;SDS011;18289;51.330;4.946;2024-03-22T11:26:27;17.40;;;12.73;;
31694;SDS011;18289;51.330;4.946;2024-03-22T11:28:53;17.63;;;13.05;;
31694;SDS011;18289;51.330;4.946;2024-03-22T11:31:19;18.23;;;14.35;;
31694;SDS011;18289;51.330;4.946;2024-03-22T11:33:50;20.83;;;14.27;;
31694;SDS011;18289;51.330;4.946;2024-03-22T11:36:16;20.15;;;14.77;;
31694;SDS011;18289;51.330;4.946;2024-03-22T11:38:42;18.63;;;13.43;;
31694;SDS011;18289;51.330;4.946;2024-03-22T11:41:08;20.33;;;14.40;;
31694;SDS011;18289;51.330;4.946;2024-03-22T11:43:34;16.35;;;13.18;;
31694;SDS011;18289;51.330;4.946;2024-03-22T11:46:00;19.30;;;13.80;;
31694;SDS011;18289;51.330;4.946;2024-03-22T11:48:26;21.90;;;14.88;;
31694;SDS011;18289;51.330;4.946;2024-03-22T11:50:52;18.75;;;13.73;;
31694;SDS011;18289;51.330;4.946;2024-03-22T11:53:18;24.20;;;16.95;;
31694;SDS011;18289;51.330;4.946;2024-03-22T11:55:44;23.60;;;15.55;;
31694;SDS011;18289;51.330;4.946;2024-03-22T11:58:10;19.65;;;14.88;;
31694;SDS011;18289;51.330;4.946;2024-03-22T12:00:36;18.88;;;16.10;;
31694;SDS011;18289;51.330;4.946;2024-03-22T12:03:05;20.50;;;16.48;;
31694;SDS011;18289;51.330;4.946;2024-03-22T12:05:31;24.33;;;17.30;;
31694;SDS011;18289;51.330;4.946;2024-03-22T12:07:57;22.20;;;17.45;;
31694;SDS011;18289;51.330;4.946;2024-03-22T12:10:22;25.20;;;17.48;;
31694;SDS011;18289;51.330;4.946;2024-03-22T12:12:49;25.13;;;16.40;;
31694;SDS011;18289;51.330;4.946;2024-03-22T12:15:19;24.00;;;16.65;;
31694;SDS011;18289;51.330;4.946;2024-03-22T12:17:44;21.02;;;16.75;;
31694;SDS011;18289;51.330;4.946;2024-03-22T12:20:10;22.83;;;16.55;;
31694;SDS011;18289;51.330;4.946;2024-03-22T12:22:36;27.08;;;17.77;;
31694;SDS011;18289;51.330;4.946;2024-03-22T12:25:02;26.25;;;17.55;;
31694;SDS011;18289;51.330;4.946;2024-03-22T12:27:29;23.38;;;16.85;;
31694;SDS011;18289;51.330;4.946;2024-03-22T12:29:55;20.83;;;16.83;;
31694;SDS011;18289;51.330;4.946;2024-03-22T12:32:21;21.48;;;16.60;;
31694;SDS011;18289;51.330;4.946;2024-03-22T12:34:46;21.83;;;16.00;;
31694;SDS011;18289;51.330;4.946;2024-03-22T12:37:12;20.10;;;16.95;;
31694;SDS011;18289;51.330;4.946;2024-03-22T12:39:39;19.05;;;15.13;;
31694;SDS011;18289;51.330;4.946;2024-03-22T12:42:05;19.67;;;17.45;;
31694;SDS011;18289;51.330;4.946;2024-03-22T12:44:31;25.77;;;18.02;;
31694;SDS011;18289;51.330;4.946;2024-03-22T12:46:56;24.65;;;17.65;;
31694;SDS011;18289;51.330;4.946;2024-03-22T12:49:22;26.02;;;17.98;;
31694;SDS011;18289;51.330;4.946;2024-03-22T12:51:48;24.35;;;18.00;;
31694;SDS011;18289;51.330;4.946;2024-03-22T12:54:14;26.17;;;17.33;;
31694;SDS011;18289;51.330;4.946;2024-03-22T12:56:43;28.58;;;18.60;;
31694;SDS011;18289;51.330;4.946;2024-03-22T12:59:09;23.98;;;20.10;;
31694;SDS011;18289;51.330;4.946;2024-03-22T13:01:35;25.88;;;19.27;;
31694;SDS011;18289;51.330;4.946;2024-03-22T13:04:02;25.23;;;19.02;;
31694;SDS011;18289;51.330;4.946;2024-03-22T13:06:27;28.05;;;20.58;;
31694;SDS011;18289;51.330;4.946;2024-03-22T13:08:53;28.92;;;19.42;;
31694;SDS011;18289;51.330;4.946;2024-03-22T13:11:19;25.85;;;19.55;;
31694;SDS011;18289;51.330;4.946;2024-03-22T13:13:44;27.40;;;21.20;;
31694;SDS011;18289;51.330;4.946;2024-03-22T13:16:10;28.17;;;20.88;;
31694;SDS011;18289;51.330;4.946;2024-03-22T13:18:39;29.48;;;20.92;;
31694;SDS011;18289;51.330;4.946;2024-03-22T13:21:05;31.73;;;21.55;;
31694;SDS011;18289;51.330;4.946;2024-03-22T13:23:31;27.27;;;21.17;;
31694;SDS011;18289;51.330;4.946;2024-03-22T13:26:02;31.33;;;20.83;;
31694;SDS011;18289;51.330;4.946;2024-03-22T13:28:31;27.83;;;19.33;;
31694;SDS011;18289;51.330;4.946;2024-03-22T13:31:01;30.52;;;20.58;;
31694;SDS011;18289;51.330;4.946;2024-03-22T13:33:28;28.40;;;20.92;;
31694;SDS011;18289;51.330;4.946;2024-03-22T13:35:57;27.13;;;20.98;;
31694;SDS011;18289;51.330;4.946;2024-03-22T13:38:23;26.08;;;17.90;;
31694;SDS011;18289;51.330;4.946;2024-03-22T13:40:52;25.33;;;18.75;;
31694;SDS011;18289;51.330;4.946;2024-03-22T13:43:19;27.48;;;19.77;;
31694;SDS011;18289;51.330;4.946;2024-03-22T13:45:44;29.50;;;18.58;;
31694;SDS011;18289;51.330;4.946;2024-03-22T13:50:39;26.10;;;16.90;;
31694;SDS011;18289;51.330;4.946;2024-03-22T13:53:05;27.13;;;15.73;;
31694;SDS011;18289;51.330;4.946;2024-03-22T13:55:32;24.90;;;15.90;;
31694;SDS011;18289;51.330;4.946;2024-03-22T13:57:58;24.75;;;15.73;;
31694;SDS011;18289;51.330;4.946;2024-03-22T14:00:23;20.90;;;16.30;;
31694;SDS011;18289;51.330;4.946;2024-03-22T14:05:18;21.63;;;16.75;;
31694;SDS011;18289;51.330;4.946;2024-03-22T14:07:44;25.77;;;16.25;;
31694;SDS011;18289;51.330;4.946;2024-03-22T14:10:09;25.67;;;16.52;;
31694;SDS011;18289;51.330;4.946;2024-03-22T14:12:38;21.33;;;16.27;;
31694;SDS011;18289;51.330;4.946;2024-03-22T14:15:03;22.35;;;17.50;;
31694;SDS011;18289;51.330;4.946;2024-03-22T14:17:31;22.05;;;15.65;;
31694;SDS011;18289;51.330;4.946;2024-03-22T14:19:58;24.38;;;16.38;;
31694;SDS011;18289;51.330;4.946;2024-03-22T14:22:24;21.13;;;15.35;;
31694;SDS011;18289;51.330;4.946;2024-03-22T14:24:50;21.50;;;15.25;;
31694;SDS011;18289;51.330;4.946;2024-03-22T14:27:16;20.73;;;15.57;;
31694;SDS011;18289;51.330;4.946;2024-03-22T14:29:41;19.70;;;14.07;;
31694;SDS011;18289;51.330;4.946;2024-03-22T14:32:07;18.80;;;15.18;;
31694;SDS011;18289;51.330;4.946;2024-03-22T14:34:32;21.08;;;15.95;;
31694;SDS011;18289;51.330;4.946;2024-03-22T14:36:58;23.13;;;14.73;;
31694;SDS011;18289;51.330;4.946;2024-03-22T14:39:24;20.67;;;13.38;;
31694;SDS011;18289;51.330;4.946;2024-03-22T14:41:50;19.10;;;14.32;;
31694;SDS011;18289;51.330;4.946;2024-03-22T14:44:15;19.80;;;14.40;;
31694;SDS011;18289;51.330;4.946;2024-03-22T14:46:41;19.02;;;13.63;;